Time;durP1;ratioP1;P1;durP2;ratioP2;P2;SDS_P1;SDS_P2;PMS_P1;PMS_P2;Temp;Humidity;BMP_temperature;BMP_pressure;BME280_temperature;BME280_humidity;BME280_pressure;Samples;Min_cycle;Max_cycle;Signal;HPM_P1;HPM_P2
2021/10/09 00:00:44;;;;;;;24.13;17.25;;;9.60;99.90;;;;;;6115271;23;20014;-87
2021/10/09 00:03:09;;;;;;;25.48;16.83;;;9.60;99.90;;;;;;6115331;23;20009;-86
2021/10/09 00:05:35;;;;;;;26.45;17.77;;;9.70;99.90;;;;;;6115128;23;20398;-87
2021/10/09 00:08:01;;;;;;;22.30;16.70;;;9.70;99.90;;;;;;6115434;23;20010;-87
2021/10/09 00:10:29;;;;;;;22.77;15.98;;;9.60;99.90;;;;;;6115488;23;20092;-87
2021/10/09 00:12:55;;;;;;;25.15;16.67;;;9.60;99.90;;;;;;6115182;23;20439;-86
2021/10/09 00:15:22;;;;;;;25.98;18.42;;;9.60;99.90;;;;;;6114975;23;20018;-88
2021/10/09 00:17:48;;;;;;;24.55;17.15;;;9.60;99.90;;;;;;6114962;23;20343;-87
2021/10/09 00:20:14;;;;;;;25.35;17.75;;;9.60;99.90;;;;;;6091123;23;20014;-87
2021/10/09 00:22:40;;;;;;;27.17;18.23;;;9.60;99.90;;;;;;6114992;23;20045;-87
2021/10/09 00:25:08;;;;;;;24.00;17.65;;;9.50;99.90;;;;;;6115092;23;20006;-87
2021/10/09 00:27:34;;;;;;;23.90;17.20;;;9.50;99.90;;;;;;6087378;23;20174;-87
2021/10/09 00:30:00;;;;;;;25.77;16.85;;;9.50;99.90;;;;;;6091484;23;20395;-86
2021/10/09 00:32:26;;;;;;;25.73;17.92;;;9.60;99.90;;;;;;6115084;23;20025;-85
2021/10/09 00:34:52;;;;;;;24.52;17.05;;;9.50;99.90;;;;;;6115148;23;20034;-86
2021/10/09 00:37:17;;;;;;;26.88;18.92;;;9.50;99.90;;;;;;6114629;23;20010;-87
2021/10/09 00:39:43;;;;;;;24.75;17.10;;;9.50;99.90;;;;;;6114748;23;20045;-87
2021/10/09 00:42:09;;;;;;;24.10;16.63;;;9.50;99.90;;;;;;6114977;23;20006;-87
2021/10/09 00:44:58;;;;;;;22.98;16.92;;;9.40;99.90;;;;;;6090889;23;20033;-86
2021/10/09 00:47:25;;;;;;;28.23;18.07;;;9.30;99.90;;;;;;6055667;23;20084;-87
2021/10/09 00:49:51;;;;;;;24.70;17.73;;;9.40;99.90;;;;;;6031998;23;20015;-87
2021/10/09 00:52:18;;;;;;;26.08;17.95;;;9.30;99.90;;;;;;6055848;23;20013;-87
2021/10/09 00:54:46;;;;;;;23.58;17.23;;;9.20;99.90;;;;;;6055999;23;20015;-85
2021/10/09 00:57:16;;;;;;;26.20;18.38;;;9.20;99.90;;;;;;6032063;23;20007;-87
2021/10/09 00:59:42;;;;;;;27.17;18.52;;;9.20;99.90;;;;;;6057383;23;20022;-87
2021/10/09 01:02:09;;;;;;;26.13;17.83;;;9.20;99.90;;;;;;6055844;23;20063;-87
2021/10/09 01:04:36;;;;;;;26.10;17.20;;;9.10;99.90;;;;;;6055980;23;20018;-86
2021/10/09 01:07:03;;;;;;;31.73;19.45;;;9.10;99.90;;;;;;6031864;23;20006;-87
2021/10/09 01:09:28;;;;;;;27.83;19.02;;;9.20;99.90;;;;;;6056176;23;20126;-88
2021/10/09 01:11:54;;;;;;;30.13;19.38;;;9.20;99.90;;;;;;6031851;23;20010;-87
2021/10/09 01:14:23;;;;;;;32.53;20.83;;;9.20;99.90;;;;;;6056034;23;20013;-87
2021/10/09 01:16:49;;;;;;;28.17;18.52;;;9.30;99.90;;;;;;6055719;23;20015;-87
2021/10/09 01:19:15;;;;;;;31.35;19.98;;;9.30;99.90;;;;;;6056200;23;20023;-87
2021/10/09 01:21:47;;;;;;;29.27;20.20;;;9.30;99.90;;;;;;6032685;23;20006;-87
2021/10/09 01:24:13;;;;;;;30.33;20.15;;;9.30;99.90;;;;;;6061251;23;20440;-86
2021/10/09 01:26:40;;;;;;;30.95;19.10;;;9.30;99.90;;;;;;6061716;23;20068;-86
2021/10/09 01:29:10;;;;;;;30.13;19.08;;;9.30;99.90;;;;;;6062410;23;20014;-85
2021/10/09 01:31:37;;;;;;;27.33;19.92;;;9.20;99.90;;;;;;6086077;23;20006;-85
2021/10/09 01:34:04;;;;;;;26.67;17.33;;;9.30;99.90;;;;;;6085859;23;20011;-85
2021/10/09 01:36:31;;;;;;;28.48;19.20;;;9.20;99.90;;;;;;6085477;23;20097;-86
2021/10/09 01:38:58;;;;;;;29.98;19.23;;;9.10;99.90;;;;;;6085606;23;20037;-86
2021/10/09 01:41:41;;;;;;;28.38;19.17;;;9.10;99.90;;;;;;6087319;23;20010;-86
2021/10/09 01:44:08;;;;;;;27.27;19.17;;;9.10;99.90;;;;;;6061818;23;20034;-86
2021/10/09 01:46:34;;;;;;;28.85;18.75;;;9.10;99.90;;;;;;6070517;23;20026;-88
2021/10/09 01:49:00;;;;;;;26.23;18.33;;;9.00;99.90;;;;;;6084625;23;20582;-86
2021/10/09 01:51:26;;;;;;;29.83;19.30;;;9.00;99.90;;;;;;6085505;23;20014;-88
2021/10/09 01:53:52;;;;;;;27.45;19.38;;;9.00;99.90;;;;;;6085577;23;20002;-87
2021/10/09 01:56:18;;;;;;;31.67;19.90;;;9.00;99.90;;;;;;6085627;23;20016;-86
2021/10/09 01:58:44;;;;;;;27.80;19.00;;;8.90;99.90;;;;;;6109313;23;20034;-87
2021/10/09 02:01:17;;;;;;;25.90;17.55;;;8.90;99.90;;;;;;6085092;23;20104;-86
2021/10/09 02:03:44;;;;;;;27.88;18.17;;;8.80;99.90;;;;;;6087327;23;20029;-86
2021/10/09 02:06:10;;;;;;;26.55;17.70;;;8.80;99.90;;;;;;6087783;23;20011;-86
2021/10/09 02:08:36;;;;;;;26.25;17.73;;;8.90;99.90;;;;;;6110827;23;20037;-86
2021/10/09 02:11:04;;;;;;;26.33;17.85;;;9.00;99.90;;;;;;6087535;23;20010;-87
2021/10/09 02:13:41;;;;;;;28.67;18.65;;;8.90;99.90;;;;;;6111266;23;20030;-86
2021/10/09 02:24:07;;;;;;;28.65;17.90;;;8.80;99.90;;;;;;6099197;23;20050;-86
2021/10/09 02:27:11;;;;;;;24.58;16.80;;;8.80;99.90;;;;;;6111138;23;20029;-86
2021/10/09 02:29:39;;;;;;;26.63;17.50;;;8.90;99.90;;;;;;6087572;23;20017;-87
2021/10/09 02:32:04;;;;;;;27.75;17.85;;;8.90;99.90;;;;;;6087382;23;20379;-86
2021/10/09 02:34:31;;;;;;;26.17;17.45;;;8.80;99.90;;;;;;6087198;23;20006;-87
2021/10/09 02:36:56;;;;;;;27.77;18.17;;;8.80;99.90;;;;;;6087180;23;20022;-86
2021/10/09 02:39:23;;;;;;;27.35;17.70;;;8.80;99.90;;;;;;6086942;23;20018;-86
2021/10/09 02:41:52;;;;;;;26.45;17.77;;;8.80;99.90;;;;;;6087838;23;20002;-86
2021/10/09 02:44:43;;;;;;;29.08;19.17;;;8.80;99.90;;;;;;6111023;23;20046;-85
2021/10/09 02:47:08;;;;;;;29.45;18.45;;;8.80;99.90;;;;;;6048133;23;20023;-86
2021/10/09 02:49:37;;;;;;;29.08;19.85;;;8.80;99.90;;;;;;6033942;23;20018;-86
2021/10/09 02:52:03;;;;;;;30.38;19.90;;;8.70;99.90;;;;;;6033199;23;20007;-86
2021/10/09 02:54:29;;;;;;;29.27;19.20;;;8.80;99.90;;;;;;6056802;23;20015;-86
2021/10/09 02:56:58;;;;;;;29.05;18.50;;;8.80;99.90;;;;;;6034257;23;20067;-86
2021/10/09 02:59:24;;;;;;;30.00;19.17;;;8.70;99.90;;;;;;6057073;23;20050;-86
2021/10/09 03:01:50;;;;;;;30.80;19.48;;;8.80;99.90;;;;;;6057127;23;20011;-86
2021/10/09 03:04:19;;;;;;;28.30;18.90;;;8.70;99.90;;;;;;6057190;23;20413;-86
2021/10/09 03:06:45;;;;;;;26.38;17.83;;;8.70;99.90;;;;;;6033592;23;20006;-86
2021/10/09 03:09:11;;;;;;;28.20;18.25;;;8.70;99.90;;;;;;6033310;23;20061;-86
2021/10/09 03:11:38;;;;;;;26.20;18.08;;;8.70;99.90;;;;;;6033115;23;20018;-86
2021/10/09 03:14:04;;;;;;;32.08;19.90;;;8.60;99.90;;;;;;6032769;23;20011;-86
2021/10/09 03:16:30;;;;;;;28.10;18.45;;;8.60;99.90;;;;;;6033225;23;20078;-86
2021/10/09 03:18:58;;;;;;;25.55;17.65;;;8.50;99.90;;;;;;6056943;23;20025;-86
2021/10/09 03:21:24;;;;;;;28.30;18.17;;;8.50;99.90;;;;;;6033153;23;20007;-86
2021/10/09 03:23:49;;;;;;;27.95;18.25;;;8.50;99.90;;;;;;6072416;23;20482;-87
2021/10/09 03:26:17;;;;;;;29.08;18.63;;;8.50;99.90;;;;;;6092131;23;20010;-86
2021/10/09 03:28:42;;;;;;;28.17;17.23;;;8.40;99.90;;;;;;6115841;23;20017;-86
2021/10/09 03:31:09;;;;;;;28.75;19.00;;;8.40;99.90;;;;;;6115775;23;20069;-85
2021/10/09 03:33:36;;;;;;;28.08;17.42;;;8.40;99.90;;;;;;6091990;23;20010;-86
2021/10/09 03:36:02;;;;;;;26.10;17.90;;;8.40;99.90;;;;;;6115572;23;20338;-86
2021/10/09 03:38:28;;;;;;;26.42;17.23;;;8.40;99.90;;;;;;6115244;23;20061;-86
2021/10/09 03:41:00;;;;;;;28.02;19.73;;;8.30;99.90;;;;;;6115915;23;20084;-86
2021/10/09 03:43:26;;;;;;;26.90;17.00;;;8.30;99.90;;;;;;6115719;23;20017;-86
2021/10/09 03:46:05;;;;;;;29.08;18.48;;;8.40;99.90;;;;;;6115085;23;20006;-86
2021/10/09 03:53:37;;;;;;;27.10;17.23;;;8.00;99.90;;;;;;6115143;23;20017;-86
2021/10/09 03:56:03;;;;;;;31.00;19.65;;;7.90;99.90;;;;;;6116073;23;20009;-87
2021/10/09 03:58:35;;;;;;;27.85;18.10;;;7.80;99.90;;;;;;6116662;23;20013;-87
2021/10/09 04:01:01;;;;;;;25.67;17.17;;;7.80;99.90;;;;;;6115227;23;20021;-88
2021/10/09 04:03:27;;;;;;;29.60;17.25;;;7.70;99.90;;;;;;6115393;23;20006;-87
2021/10/09 04:05:54;;;;;;;26.90;17.77;;;7.60;99.90;;;;;;6115420;23;20020;-86
2021/10/09 04:08:19;;;;;;;24.10;15.77;;;7.60;99.90;;;;;;6115395;23;20002;-86
2021/10/09 04:10:45;;;;;;;25.60;16.23;;;7.60;99.90;;;;;;6114924;23;20010;-87
2021/10/09 04:13:11;;;;;;;29.25;18.25;;;7.50;99.90;;;;;;6115277;23;20017;-87
2021/10/09 04:15:37;;;;;;;27.58;16.80;;;7.50;99.90;;;;;;6115577;23;20085;-85
2021/10/09 04:18:03;;;;;;;23.13;15.40;;;7.50;99.90;;;;;;6139751;23;20422;-87
2021/10/09 04:20:29;;;;;;;23.70;14.57;;;7.50;99.90;;;;;;6115373;23;20010;-87
2021/10/09 04:22:55;;;;;;;28.67;18.25;;;7.50;99.90;;;;;;6115217;23;20002;-87
2021/10/09 04:25:21;;;;;;;25.23;16.05;;;7.50;99.90;;;;;;6115029;23;20016;-87
2021/10/09 04:27:47;;;;;;;26.15;16.92;;;7.50;99.90;;;;;;6115122;23;20017;-87
2021/10/09 04:30:13;;;;;;;29.38;18.13;;;7.50;99.90;;;;;;6115206;23;20010;-86
2021/10/09 04:32:39;;;;;;;30.30;18.05;;;7.50;99.90;;;;;;6115169;23;20005;-87
2021/10/09 04:35:07;;;;;;;29.40;18.20;;;7.70;99.90;;;;;;6115238;23;20010;-88
2021/10/09 04:37:33;;;;;;;27.33;17.58;;;7.70;99.90;;;;;;6115249;23;20005;-87
2021/10/09 04:39:59;;;;;;;29.27;17.55;;;7.50;99.90;;;;;;6115108;23;20018;-87
2021/10/09 04:42:26;;;;;;;27.25;16.90;;;7.40;99.90;;;;;;6115170;23;20006;-88
2021/10/09 04:44:52;;;;;;;26.65;17.10;;;7.30;99.90;;;;;;6115158;23;20010;-87
2021/10/09 04:47:19;;;;;;;27.70;17.45;;;7.30;99.90;;;;;;6114932;23;20017;-87
2021/10/09 04:49:45;;;;;;;28.13;16.88;;;7.20;99.90;;;;;;6114908;23;20014;-87
2021/10/09 04:52:11;;;;;;;28.30;16.85;;;7.10;99.90;;;;;;6140867;23;20002;-88
2021/10/09 04:54:38;;;;;;;26.92;16.85;;;7.20;99.90;;;;;;6114988;23;20010;-87
2021/10/09 04:57:04;;;;;;;27.83;16.90;;;7.10;99.90;;;;;;6114985;23;20030;-88
2021/10/09 04:59:29;;;;;;;26.15;17.27;;;7.00;99.90;;;;;;6115107;23;20028;-88
2021/10/09 05:01:55;;;;;;;29.27;16.25;;;7.00;99.90;;;;;;6114961;23;20082;-87
2021/10/09 05:04:21;;;;;;;23.60;14.93;;;6.90;99.90;;;;;;6114881;23;20017;-88
2021/10/09 05:06:47;;;;;;;25.98;16.73;;;6.80;99.90;;;;;;6115043;23;20285;-86
2021/10/09 05:09:13;;;;;;;27.45;17.15;;;6.80;99.90;;;;;;6115390;23;20242;-88
2021/10/09 05:11:39;;;;;;;27.55;17.40;;;6.60;99.90;;;;;;6114511;23;20323;-87
2021/10/09 05:14:05;;;;;;;28.92;16.98;;;6.70;99.90;;;;;;6115167;23;20041;-88
2021/10/09 05:16:32;;;;;;;24.17;15.52;;;6.60;99.90;;;;;;6114823;23;20057;-88
2021/10/09 05:18:59;;;;;;;24.42;16.38;;;6.60;99.90;;;;;;6115144;23;20022;-87
2021/10/09 05:21:24;;;;;;;25.38;17.00;;;6.50;99.90;;;;;;6114917;23;20006;-88
2021/10/09 05:23:50;;;;;;;25.92;15.95;;;6.50;99.90;;;;;;6114924;23;20014;-88
2021/10/09 05:26:16;;;;;;;24.33;15.40;;;6.50;99.90;;;;;;6114760;23;20002;-87
2021/10/09 05:31:11;;;;;;;27.38;16.75;;;6.40;99.90;;;;;;6114525;23;20157;-87
2021/10/09 05:33:42;;;;;;;22.70;15.18;;;6.40;99.90;;;;;;6088467;23;20093;-87
2021/10/09 05:36:08;;;;;;;25.58;15.73;;;6.50;99.90;;;;;;6114847;23;20010;-88
2021/10/09 05:38:35;;;;;;;21.77;14.35;;;6.50;99.90;;;;;;6116642;23;20021;-88
2021/10/09 05:41:01;;;;;;;22.90;14.25;;;6.40;99.90;;;;;;6116511;23;20009;-88
2021/10/09 05:43:32;;;;;;;;;;;6.30;99.90;;;;;;6118179;23;20300;-88
2021/10/09 05:45:59;;;;;;;23.67;13.68;;;6.30;99.90;;;;;;6092534;23;20060;-88
2021/10/09 05:48:26;;;;;;;20.98;13.63;;;6.30;99.90;;;;;;6088335;23;20329;-88
2021/10/09 05:56:15;;;;;;;24.25;14.85;;;6.20;99.90;;;;;;6111803;23;20017;-88
2021/10/09 05:58:55;;;;;;;23.55;15.18;;;6.20;99.90;;;;;;6116265;23;20013;-88
2021/10/09 06:01:37;;;;;;;24.60;14.35;;;6.20;99.90;;;;;;6116556;23;20024;-88
2021/10/09 06:42:59;;;;;;;20.58;12.93;;;6.70;99.90;;;;;;6115401;23;20033;-87
2021/10/09 06:51:08;;;;;;;17.55;12.32;;;7.00;99.90;;;;;;6115880;23;20203;-87
2021/10/09 07:01:47;;;;;;;19.88;13.90;;;7.30;99.90;;;;;;6115543;23;20018;-88
2021/10/09 07:04:13;;;;;;;20.88;14.10;;;7.40;99.90;;;;;;6091733;23;20016;-88
2021/10/09 07:06:40;;;;;;;19.00;12.43;;;7.50;99.90;;;;;;6091231;23;20006;-88
2021/10/09 07:09:08;;;;;;;20.45;13.63;;;7.50;99.90;;;;;;6091863;23;20006;-88
2021/10/09 07:11:53;;;;;;;23.70;14.82;;;7.60;99.90;;;;;;6094795;23;20017;-87
2021/10/09 07:14:18;;;;;;;25.00;15.13;;;7.60;99.90;;;;;;6091154;23;20005;-87
2021/10/09 07:16:44;;;;;;;23.52;15.13;;;7.60;99.90;;;;;;6091567;23;20014;-87
2021/10/09 07:19:10;;;;;;;30.85;18.17;;;7.70;99.90;;;;;;6091315;23;20025;-87
2021/10/09 07:21:39;;;;;;;28.00;17.25;;;7.70;99.90;;;;;;6092066;23;20002;-87
2021/10/09 07:24:05;;;;;;;24.40;16.52;;;7.80;99.90;;;;;;6091570;23;20069;-86
2021/10/09 07:26:31;;;;;;;29.27;17.13;;;7.80;99.90;;;;;;6090847;23;20331;-87
2021/10/09 07:28:56;;;;;;;22.75;14.70;;;7.90;99.90;;;;;;6091138;23;20036;-86
2021/10/09 07:31:22;;;;;;;25.67;16.50;;;8.00;99.90;;;;;;6090895;23;20057;-87
2021/10/09 07:33:48;;;;;;;27.08;16.90;;;8.00;99.90;;;;;;6090918;23;20094;-86
2021/10/09 07:36:13;;;;;;;23.08;15.10;;;8.10;99.90;;;;;;6090884;23;20009;-86
2021/10/09 07:38:39;;;;;;;35.47;21.88;;;8.10;99.90;;;;;;6079475;23;20085;-86
2021/10/09 07:41:04;;;;;;;34.22;20.73;;;8.10;99.90;;;;;;6086271;23;20069;-86
2021/10/09 07:43:30;;;;;;;29.80;18.25;;;8.10;99.90;;;;;;6085956;23;20054;-88
2021/10/09 07:45:56;;;;;;;32.63;19.70;;;8.20;99.90;;;;;;6085706;23;20013;-86
2021/10/09 07:48:22;;;;;;;32.63;19.42;;;8.20;99.90;;;;;;6085972;23;20379;-86
2021/10/09 07:50:47;;;;;;;31.33;20.27;;;8.30;99.90;;;;;;6086069;23;20022;-86
2021/10/09 07:53:13;;;;;;;31.98;19.88;;;8.30;99.90;;;;;;6085863;23;20407;-86
2021/10/09 07:55:40;;;;;;;30.58;16.73;;;8.40;99.90;;;;;;6085721;23;20037;-87
2021/10/09 07:58:06;;;;;;;30.92;19.08;;;8.40;99.90;;;;;;6061743;23;20070;-87
2021/10/09 08:00:31;;;;;;;33.70;21.02;;;8.40;99.90;;;;;;6085604;23;20065;-86
2021/10/09 08:03:02;;;;;;;31.55;20.25;;;8.60;99.90;;;;;;6085715;23;20034;-86
2021/10/09 08:05:28;;;;;;;33.75;20.65;;;8.60;99.90;;;;;;6086001;23;20014;-86
2021/10/09 08:07:53;;;;;;;34.83;22.52;;;8.70;99.90;;;;;;6086068;23;20479;-86
2021/10/09 08:10:19;;;;;;;36.05;22.50;;;8.70;99.90;;;;;;6085697;23;20030;-86
2021/10/09 08:12:45;;;;;;;36.70;22.63;;;8.70;99.90;;;;;;6085873;23;20013;-87
2021/10/09 08:15:11;;;;;;;40.13;24.13;;;8.80;99.90;;;;;;6085306;23;20016;-87
2021/10/09 08:17:37;;;;;;;36.47;23.48;;;8.70;99.90;;;;;;6085986;23;20487;-86
2021/10/09 08:20:04;;;;;;;35.92;21.45;;;8.80;99.90;;;;;;6085638;23;20339;-86
2021/10/09 08:22:32;;;;;;;35.40;23.17;;;8.80;99.90;;;;;;6085384;23;20018;-85
2021/10/09 08:41:08;;;;;;;35.90;23.33;;;9.50;99.90;;;;;;6114008;23;20014;-86
2021/10/09 08:43:34;;;;;;;36.85;22.98;;;9.90;99.90;;;;;;6089867;23;20033;-85
2021/10/09 08:46:00;;;;;;;29.20;19.38;;;10.30;99.90;;;;;;6089790;23;20010;-83
2021/10/09 08:48:30;;;;;;;37.15;25.17;;;10.50;99.90;;;;;;6113828;23;20092;-85
2021/10/09 08:50:59;;;;;;;36.65;23.42;;;10.40;99.90;;;;;;6089992;23;20014;-84
2021/10/09 08:53:39;;;;;;;37.03;24.67;;;10.60;99.90;;;;;;6090015;23;20010;-84
2021/10/09 08:56:07;;;;;;;37.08;23.52;;;10.70;99.90;;;;;;6089924;23;20057;-84
2021/10/09 08:58:36;;;;;;;34.08;23.63;;;10.80;99.90;;;;;;6089497;23;20064;-84
2021/10/09 09:01:17;;;;;;;36.53;22.58;;;10.60;99.90;;;;;;6113710;23;20447;-85
2021/10/09 09:04:44;;;;;;;34.10;22.60;;;10.60;99.90;;;;;;6089577;23;20010;-83
2021/10/09 09:35:03;;;;;;;34.97;23.83;;;11.00;99.90;;;;;;6113615;23;20037;-86
2021/10/09 09:40:10;;;;;;;36.28;23.48;;;11.30;99.90;;;;;;6113483;23;20025;-84
2021/10/09 09:42:47;;;;;;;29.85;19.63;;;11.60;99.90;;;;;;6113590;23;20009;-84
2021/10/09 09:45:22;;;;;;;30.85;19.05;;;11.80;99.90;;;;;;6113231;23;20014;-86
2021/10/09 09:47:52;;;;;;;31.38;21.25;;;11.90;99.90;;;;;;6113347;23;20074;-84
2021/10/09 09:50:18;;;;;;;28.25;19.25;;;11.80;99.90;;;;;;6113463;23;20082;-86
2021/10/09 09:52:45;;;;;;;34.00;23.80;;;12.00;99.90;;;;;;6089612;23;20006;-85
2021/10/09 09:55:13;;;;;;;30.80;20.67;;;11.90;99.90;;;;;;6113783;23;20057;-84
2021/10/09 09:57:39;;;;;;;31.42;18.67;;;12.00;99.90;;;;;;6089605;23;20006;-85
2021/10/09 10:00:16;;;;;;;28.10;19.60;;;12.30;99.90;;;;;;6088753;23;20018;-85
2021/10/09 10:02:54;;;;;;;31.77;19.77;;;12.40;99.90;;;;;;6089215;23;20049;-85
2021/10/09 10:05:24;;;;;;;31.52;20.20;;;12.50;99.90;;;;;;6089410;23;20005;-85
2021/10/09 10:07:51;;;;;;;30.77;19.90;;;12.60;99.90;;;;;;6089542;23;20010;-84
2021/10/09 10:10:16;;;;;;;25.80;18.38;;;12.70;99.90;;;;;;6089115;23;20006;-84
2021/10/09 10:12:44;;;;;;;26.88;18.75;;;13.00;99.90;;;;;;6089734;23;20066;-84
2021/10/09 10:15:12;;;;;;;26.85;18.05;;;13.10;99.90;;;;;;6089198;23;20093;-84
2021/10/09 10:17:41;;;;;;;25.70;18.13;;;12.90;99.90;;;;;;6089517;23;20033;-85
2021/10/09 10:20:24;;;;;;;28.35;18.02;;;13.10;99.90;;;;;;6089230;23;20017;-84
2021/10/09 10:22:55;;;;;;;27.02;18.60;;;13.20;99.90;;;;;;6089677;23;20069;-84
2021/10/09 10:25:25;;;;;;;24.88;17.38;;;13.10;99.90;;;;;;6091031;23;20057;-84
2021/10/09 10:28:04;;;;;;;21.85;15.93;;;13.30;99.90;;;;;;6115197;23;20010;-85
2021/10/09 10:31:01;;;;;;;27.63;17.48;;;13.20;99.90;;;;;;6114921;23;20442;-84
2021/10/09 10:33:30;;;;;;;28.25;18.38;;;13.40;99.90;;;;;;6091005;23;20006;-85
2021/10/09 10:35:56;;;;;;;27.65;18.15;;;13.20;99.90;;;;;;6091036;23;20014;-83
2021/10/09 10:38:22;;;;;;;22.70;15.57;;;13.20;99.90;;;;;;6109679;23;20133;-85
2021/10/09 10:40:49;;;;;;;21.40;14.60;;;13.40;99.90;;;;;;6061164;23;20010;-84
2021/10/09 10:43:31;;;;;;;27.25;17.75;;;13.60;99.90;;;;;;6080941;23;20013;-85
2021/10/09 10:45:58;;;;;;;22.95;16.02;;;13.50;99.90;;;;;;6051090;23;20010;-84
2021/10/09 10:49:01;;;;;;;23.95;16.27;;;13.60;99.90;;;;;;6085743;23;20022;-85
2021/10/09 10:57:02;;;;;;;21.17;14.68;;;13.80;99.90;;;;;;6085621;23;20017;-83
2021/10/09 10:59:32;;;;;;;20.00;14.15;;;13.90;99.90;;;;;;6085856;23;20248;-84
2021/10/09 11:02:19;;;;;;;21.95;13.73;;;14.10;99.90;;;;;;6085638;23;20045;-84
2021/10/09 11:04:49;;;;;;;21.20;13.57;;;14.50;99.90;;;;;;6085713;23;20007;-84
2021/10/09 11:07:16;;;;;;;23.42;13.68;;;14.60;99.90;;;;;;6085782;23;20010;-83
2021/10/09 11:09:42;;;;;;;22.33;13.77;;;14.50;99.90;;;;;;6085738;23;20002;-84
2021/10/09 11:12:19;;;;;;;20.27;13.77;;;14.40;99.90;;;;;;6085494;23;20105;-84
2021/10/09 11:14:45;;;;;;;20.88;15.02;;;14.30;99.90;;;;;;6085101;23;20093;-84
2021/10/09 11:17:11;;;;;;;17.17;11.88;;;14.30;99.90;;;;;;6109809;23;20077;-84
2021/10/09 11:19:48;;;;;;;16.00;11.15;;;14.40;99.90;;;;;;6085465;23;20018;-84
2021/10/09 11:22:16;;;;;;;20.63;13.20;;;14.80;99.90;;;;;;6109606;23;20069;-84
2021/10/09 11:24:47;;;;;;;17.75;13.65;;;14.90;99.90;;;;;;6085692;23;20017;-84
2021/10/09 11:27:14;;;;;;;20.02;13.27;;;14.70;99.90;;;;;;6085556;23;20011;-83
2021/10/09 11:29:42;;;;;;;18.17;11.90;;;14.70;99.90;;;;;;6085393;23;20010;-85
2021/10/09 11:32:10;;;;;;;22.30;15.98;;;15.00;99.90;;;;;;6085607;23;20010;-84
2021/10/09 11:34:48;;;;;;;21.58;15.23;;;14.70;99.90;;;;;;6085127;23;20011;-84
2021/10/09 11:37:15;;;;;;;21.48;14.50;;;14.90;99.90;;;;;;6085378;23;20034;-84
2021/10/09 11:39:46;;;;;;;17.58;12.20;;;15.00;99.90;;;;;;6084591;23;20029;-84
2021/10/09 11:42:13;;;;;;;22.38;14.40;;;15.30;99.90;;;;;;6084909;23;20015;-86
2021/10/09 11:45:03;;;;;;;23.48;15.23;;;15.00;99.90;;;;;;6061559;23;20010;-85
2021/10/09 11:53:31;;;;;;;18.67;13.60;;;14.90;99.90;;;;;;6026783;23;20023;-84
2021/10/09 11:56:06;;;;;;;17.58;12.07;;;15.40;99.90;;;;;;6026849;23;20034;-84
2021/10/09 11:58:32;;;;;;;17.75;11.38;;;15.30;99.90;;;;;;6026695;23;20019;-85
2021/10/09 12:00:57;;;;;;;18.27;14.20;;;15.40;99.90;;;;;;6026531;23;20019;-85
2021/10/09 12:03:35;;;;;;;16.90;11.30;;;15.30;99.90;;;;;;6026731;23;20011;-85
2021/10/09 12:06:10;;;;;;;16.83;10.52;;;15.50;99.90;;;;;;6026666;23;20080;-84
2021/10/09 12:08:49;;;;;;;17.88;10.75;;;15.80;99.90;;;;;;6026600;23;20022;-83
2021/10/09 12:11:22;;;;;;;15.23;10.03;;;15.70;99.90;;;;;;6026404;23;20034;-84
2021/10/09 12:13:56;;;;;;;16.90;10.52;;;16.00;99.90;;;;;;6026816;23;20824;-83
2021/10/09 12:16:38;;;;;;;14.73;10.32;;;15.80;99.90;;;;;;6026076;23;20068;-84
2021/10/09 12:19:07;;;;;;;14.07;10.60;;;15.90;99.90;;;;;;6026521;23;20027;-85
2021/10/09 12:21:38;;;;;;;21.23;11.43;;;16.00;99.90;;;;;;6002758;23;20003;-85
2021/10/09 12:24:16;;;;;;;15.95;10.93;;;16.00;99.90;;;;;;6044826;23;20034;-84
2021/10/09 12:26:42;;;;;;;12.68;10.27;;;16.00;99.90;;;;;;6085004;23;20012;-85
2021/10/09 12:29:14;;;;;;;16.45;11.60;;;15.80;99.90;;;;;;6061494;23;20006;-85
2021/10/09 12:31:46;;;;;;;15.25;11.02;;;15.80;99.90;;;;;;6060606;23;20006;-85
2021/10/09 12:34:29;;;;;;;13.80;10.90;;;16.10;99.90;;;;;;6061540;23;20014;-84
2021/10/09 12:37:22;;;;;;;13.90;10.77;;;15.90;99.90;;;;;;6084628;23;20007;-85
2021/10/09 12:40:16;;;;;;;16.58;10.43;;;16.10;99.90;;;;;;6084913;23;20014;-85
2021/10/09 12:42:44;;;;;;;17.83;12.30;;;16.20;99.90;;;;;;6113907;23;20010;-86
2021/10/09 12:45:09;;;;;;;18.08;12.73;;;16.00;99.90;;;;;;6138064;23;20020;-85
2021/10/09 12:47:35;;;;;;;19.25;13.40;;;15.90;99.90;;;;;;6110564;23;20010;-85
2021/10/09 12:50:00;;;;;;;17.58;11.93;;;15.80;99.90;;;;;;6113851;23;20014;-85
2021/10/09 12:52:26;;;;;;;15.65;11.23;;;16.00;99.90;;;;;;6089895;23;20033;-85
2021/10/09 12:54:51;;;;;;;16.63;11.55;;;16.20;99.90;;;;;;6090097;23;20009;-86
2021/10/09 12:57:17;;;;;;;19.80;12.63;;;16.10;99.90;;;;;;6090007;23;20053;-85
2021/10/09 12:59:43;;;;;;;17.38;12.25;;;16.10;99.90;;;;;;6089932;23;20024;-87
2021/10/09 13:02:08;;;;;;;17.10;11.75;;;16.20;99.90;;;;;;6113836;23;20002;-86
2021/10/09 13:04:34;;;;;;;17.15;11.75;;;16.20;99.90;;;;;;6114398;23;20010;-85
2021/10/09 13:07:01;;;;;;;19.50;14.85;;;16.20;99.90;;;;;;6089620;23;20013;-87
2021/10/09 13:09:27;;;;;;;15.98;11.73;;;15.90;99.90;;;;;;6114038;23;20014;-86
2021/10/09 13:11:57;;;;;;;17.30;12.40;;;16.20;99.90;;;;;;6089888;23;20033;-87
2021/10/09 13:14:23;;;;;;;;;;;16.40;99.90;;;;;;6114244;23;20010;-86
2021/10/09 13:16:48;;;;;;;16.45;10.05;;;16.60;99.90;;;;;;6113893;23;19905;-87
2021/10/09 13:19:14;;;;;;;13.50;9.50;;;16.50;99.90;;;;;;6090286;23;20018;-86
2021/10/09 13:21:40;;;;;;;15.95;10.52;;;16.50;99.90;;;;;;6113802;23;20052;-86
2021/10/09 13:24:06;;;;;;;14.20;10.73;;;16.50;99.90;;;;;;6114159;23;20014;-87
2021/10/09 13:26:32;;;;;;;13.27;8.55;;;16.60;99.90;;;;;;6089736;23;20013;-87
2021/10/09 13:29:00;;;;;;;15.80;11.10;;;16.60;99.90;;;;;;6127885;23;20037;-87
2021/10/09 13:31:26;;;;;;;15.70;9.60;;;16.50;99.90;;;;;;6113594;23;20010;-87
2021/10/09 13:33:52;;;;;;;14.95;11.10;;;16.70;99.90;;;;;;6090237;23;20021;-87
2021/10/09 13:36:20;;;;;;;19.85;12.88;;;17.00;99.90;;;;;;6113817;23;20002;-89
2021/10/09 13:38:45;;;;;;;16.17;11.75;;;16.70;99.90;;;;;;6138476;23;20017;-87
2021/10/09 13:41:12;;;;;;;15.80;11.73;;;16.70;99.90;;;;;;6109386;23;20010;-87
2021/10/09 13:43:37;;;;;;;19.42;12.98;;;16.70;99.90;;;;;;6087587;23;20013;-88
2021/10/09 13:46:03;;;;;;;16.02;11.93;;;16.50;99.90;;;;;;6078687;23;20027;-86
2021/10/09 13:48:29;;;;;;;16.27;11.77;;;16.60;99.90;;;;;;6080370;23;20010;-86
2021/10/09 13:50:54;;;;;;;14.30;10.68;;;16.80;99.90;;;;;;6110604;23;20058;-86
2021/10/09 13:53:21;;;;;;;18.25;12.02;;;16.70;99.90;;;;;;6109268;23;20007;-86
2021/10/09 13:55:48;;;;;;;14.95;10.75;;;16.60;99.90;;;;;;6108418;23;20018;-86
2021/10/09 13:58:14;;;;;;;15.10;11.15;;;16.80;99.90;;;;;;6085877;23;20007;-86
2021/10/09 14:00:42;;;;;;;18.80;11.82;;;16.60;99.90;;;;;;6086737;23;20050;-86
2021/10/09 14:03:09;;;;;;;21.75;15.05;;;16.50;99.90;;;;;;6087259;23;20078;-87
2021/10/09 14:05:36;;;;;;;25.05;15.77;;;16.30;99.90;;;;;;6111319;23;20010;-88
2021/10/09 14:08:03;;;;;;;20.58;14.70;;;16.40;99.90;;;;;;6110671;23;20006;-87
2021/10/09 14:10:29;;;;;;;16.90;12.32;;;16.50;99.90;;;;;;6110871;23;20047;-87
2021/10/09 14:12:57;;;;;;;15.13;10.82;;;16.50;99.90;;;;;;6106247;23;20007;-87
2021/10/09 14:15:25;;;;;;;19.88;12.15;;;16.60;99.90;;;;;;6081390;23;20097;-86
2021/10/09 14:17:51;;;;;;;16.88;10.93;;;16.70;99.90;;;;;;6110672;23;20006;-87
2021/10/09 14:20:17;;;;;;;15.73;10.88;;;16.70;99.90;;;;;;6086579;23;20037;-88
2021/10/09 14:22:45;;;;;;;16.85;11.68;;;16.60;99.90;;;;;;6084953;23;20007;-87
2021/10/09 14:25:15;;;;;;;17.50;12.65;;;16.50;99.90;;;;;;6086654;23;20006;-86
2021/10/09 14:27:43;;;;;;;17.17;11.18;;;16.30;99.90;;;;;;6110667;23;20010;-86
2021/10/09 14:30:10;;;;;;;13.90;10.15;;;16.60;99.90;;;;;;6110054;23;20007;-87
2021/10/09 14:32:36;;;;;;;12.52;9.32;;;16.70;99.90;;;;;;6110147;23;20010;-86
2021/10/09 14:35:03;;;;;;;16.73;11.93;;;17.00;99.90;;;;;;6086721;23;20058;-87
2021/10/09 14:37:29;;;;;;;21.08;13.98;;;16.90;99.90;;;;;;6110346;23;20010;-88
2021/10/09 14:39:55;;;;;;;19.40;11.65;;;16.70;99.90;;;;;;6086248;23;20014;-87
2021/10/09 14:42:21;;;;;;;18.85;13.50;;;17.20;99.90;;;;;;6110606;23;20013;-86
2021/10/09 14:44:47;;;;;;;17.98;12.27;;;17.20;99.90;;;;;;6110013;23;20021;-88
2021/10/09 14:47:35;;;;;;;18.38;10.35;;;17.30;99.90;;;;;;6106005;23;20018;-87
2021/10/09 14:53:00;;;;;;;13.52;9.60;;;17.20;99.90;;;;;;6057901;23;20135;-87
2021/10/09 14:55:46;;;;;;;16.42;10.50;;;17.00;99.90;;;;;;6083251;23;20014;-86